CheckWX is a tool to help pilots better visualize weather data.  It is not intended as a substitute for an official pre-flight weather briefing.

15:48:45 UTC

EHEH TAF
Eindhoven Airport
Eindhoven, The Netherlands
TAF EHEH 241103Z 2412/2518 12007KT CAVOK BECMG 2509/2512 18007KT BECMG 2515/2518 30007KT

Jun-24@
12:00 UTC

Jun-24 @ 12:00 UTC

Jun-25@
09:00 UTC

Jun-25 @ 09:00 UTC

TAF EHEH 241103Z 2412/2518 12007KT CAVOK
Wind
  • 120° at 7 KTS
Conditions
No significant weather
Cloud Levels
  • No significant clouds

Jun-25@
09:00 UTC

Jun-25 @ 09:00 UTC

Jun-25@
15:00 UTC

Jun-25 @ 15:00 UTC

BECMG 2509/2512 18007KT

Becoming

Becoming Conditions expected by Tue, Jun 25, 2019 @ 12:00 UTC

Wind
  • 180° at 7 KTS
Conditions
No significant weather
Cloud Levels
  • No significant clouds

Jun-25@
15:00 UTC

Jun-25 @ 15:00 UTC

Jun-25@
18:00 UTC

Jun-25 @ 18:00 UTC

BECMG 2515/2518 30007KT

Becoming

Becoming Conditions expected by Tue, Jun 25, 2019 @ 18:00 UTC

Wind
  • 300° at 7 KTS
Conditions
No significant weather
Cloud Levels
  • No significant clouds